Time;durP1;ratioP1;P1;durP2;ratioP2;P2;SDS_P1;SDS_P2;PMS_P1;PMS_P2;Temp;Humidity;BMP_temperature;BMP_pressure;BME280_temperature;BME280_humidity;BME280_pressure;Samples;Min_cycle;Max_cycle;Signal;HPM_P1;HPM_P2
2022/02/23 00:00:24;;;;;;;13.20;3.98;;;;;;;3.91;77.68;100004.48;1581748;89;21075;-73
2022/02/23 00:02:52;;;;;;;14.83;4.42;;;;;;;3.92;77.79;100000.88;1624545;87;21077;-73
2022/02/23 00:05:18;;;;;;;16.73;4.05;;;;;;;3.94;77.89;99992.36;1636099;87;20968;-73
2022/02/23 00:07:44;;;;;;;14.47;3.90;;;;;;;3.98;78.02;99984.02;1636329;87;21033;-73
2022/02/23 00:10:10;;;;;;;13.50;3.72;;;;;;;4.01;78.13;99977.65;1635805;87;21031;-74
2022/02/23 00:12:36;;;;;;;13.83;3.90;;;;;;;4.05;78.26;99990.88;1635750;87;20912;-73
2022/02/23 00:15:03;;;;;;;15.10;4.05;;;;;;;4.07;78.33;99986.32;1636169;87;21126;-74
2022/02/23 00:17:29;;;;;;;12.88;3.65;;;;;;;4.09;78.48;99975.61;1636024;87;21083;-74
2022/02/23 00:19:56;;;;;;;9.28;3.65;;;;;;;4.10;78.58;99967.57;1635984;87;21146;-74
2022/02/23 00:22:22;;;;;;;11.75;3.17;;;;;;;4.12;78.68;99978.80;1636084;87;21160;-74
2022/02/23 00:24:48;;;;;;;10.50;3.37;;;;;;;4.13;78.78;99979.64;1635886;87;21095;-74
2022/02/23 00:27:14;;;;;;;12.00;3.83;;;;;;;4.13;78.87;99972.56;1636028;87;21079;-74
2022/02/23 00:29:40;;;;;;;17.87;5.85;;;;;;;4.17;78.98;99952.01;1636005;87;21012;-74
2022/02/23 00:32:07;;;;;;;13.13;3.65;;;;;;;4.19;79.10;99964.08;1635976;87;21523;-74
2022/02/23 00:34:33;;;;;;;21.57;4.95;;;;;;;4.25;79.26;99966.19;1635767;86;21102;-74
2022/02/23 00:37:00;;;;;;;13.15;3.95;;;;;;;4.29;79.37;99966.22;1636134;87;21063;-74
2022/02/23 00:39:26;;;;;;;14.23;3.62;;;;;;;4.32;79.48;99962.00;1635788;87;21605;-74
2022/02/23 00:41:52;;;;;;;10.32;3.92;;;;;;;4.34;79.63;99962.69;1636107;87;21503;-74
2022/02/23 00:44:18;;;;;;;14.45;3.67;;;;;;;4.39;79.74;99959.63;1635957;87;21039;-74
2022/02/23 00:46:44;;;;;;;5.72;2.45;;;;;;;4.39;79.82;99960.47;1635925;87;22052;-74
2022/02/23 00:49:10;;;;;;;7.22;3.10;;;;;;;4.43;79.96;99959.19;1635576;87;21107;-74
2022/02/23 00:51:36;;;;;;;10.48;3.42;;;;;;;4.44;80.08;99958.22;1635732;87;21064;-74
2022/02/23 00:54:02;;;;;;;9.60;2.92;;;;;;;4.46;80.19;99948.37;1636417;86;21080;-74
2022/02/23 00:56:28;;;;;;;12.23;2.60;;;;;;;4.50;80.30;99941.80;1636051;86;21036;-74
2022/02/23 00:58:54;;;;;;;11.15;5.25;;;;;;;4.54;80.43;99952.43;1636148;86;21124;-74
2022/02/23 01:01:20;;;;;;;9.33;4.30;;;;;;;4.57;80.54;99967.66;1636226;86;21070;-74
2022/02/23 01:03:46;;;;;;;9.50;3.58;;;;;;;4.59;80.66;99963.05;1631459;86;21065;-74
2022/02/23 01:06:12;;;;;;;9.80;3.20;;;;;;;4.59;80.77;99971.81;1631861;88;21034;-74
2022/02/23 01:08:38;;;;;;;9.30;2.67;;;;;;;4.58;80.85;99977.23;1627624;88;21018;-74
2022/02/23 01:11:04;;;;;;;9.25;2.62;;;;;;;4.60;80.94;99956.81;1618293;88;22407;-74
2022/02/23 01:13:30;;;;;;;6.83;2.20;;;;;;;4.66;81.09;99957.55;1612556;89;21499;-74
2022/02/23 01:15:56;;;;;;;9.25;2.22;;;;;;;4.73;81.22;99959.48;1612904;89;21042;-74
2022/02/23 01:18:22;;;;;;;8.48;2.62;;;;;;;4.81;81.33;99942.92;1612597;89;21585;-74
2022/02/23 01:20:48;;;;;;;8.13;2.87;;;;;;;4.88;81.48;99959.86;1612247;89;21142;-74
2022/02/23 01:23:15;;;;;;;10.15;2.85;;;;;;;4.90;81.57;99946.00;1612855;89;21107;-74
2022/02/23 01:25:41;;;;;;;6.50;2.10;;;;;;;4.93;81.71;99956.27;1612757;89;21016;-74
2022/02/23 01:28:07;;;;;;;9.50;2.77;;;;;;;4.95;81.79;99951.70;1612749;89;21038;-74
2022/02/23 01:30:33;;;;;;;7.97;2.52;;;;;;;4.96;81.89;99961.30;1630947;88;21031;-74
2022/02/23 01:32:59;;;;;;;11.10;3.47;;;;;;;4.96;82.02;99953.38;1639249;86;21567;-74
2022/02/23 01:35:26;;;;;;;7.20;3.30;;;;;;;4.96;82.13;99953.38;1643119;86;21570;-74
2022/02/23 01:37:55;;;;;;;12.68;4.60;;;;;;;4.95;82.21;99963.10;1638329;86;21129;-74
2022/02/23 01:40:21;;;;;;;11.48;4.65;;;;;;;4.99;82.34;99974.22;1644338;86;21154;-72
2022/02/23 01:42:47;;;;;;;12.37;8.98;;;;;;;5.01;82.46;99974.41;1647355;86;21562;-72
2022/02/23 01:45:13;;;;;;;11.60;5.12;;;;;;;5.02;82.54;99970.80;1636362;86;21688;-72
2022/02/23 01:47:39;;;;;;;8.03;4.12;;;;;;;5.03;82.61;99976.40;1643732;86;21816;-72
2022/02/23 01:50:07;;;;;;;6.15;3.22;;;;;;;5.05;82.68;99973.62;1639447;86;21141;-72
2022/02/23 01:52:33;;;;;;;10.10;2.80;;;;;;;5.06;82.75;99969.18;1635268;86;21043;-72
2022/02/23 01:54:59;;;;;;;8.48;3.40;;;;;;;5.11;82.86;99965.59;1624292;87;21085;-72
2022/02/23 01:57:25;;;;;;;8.68;3.30;;;;;;;5.15;82.92;99974.41;1622460;87;21556;-74
2022/02/23 01:59:51;;;;;;;9.28;2.90;;;;;;;5.20;82.98;99977.47;1624086;88;21887;-72
2022/02/23 02:02:17;;;;;;;7.05;2.50;;;;;;;5.26;83.09;99983.48;1621761;88;21034;-72
2022/02/23 02:04:43;;;;;;;5.62;2.02;;;;;;;5.33;83.17;99980.59;1623413;88;21032;-72
2022/02/23 02:07:09;;;;;;;8.50;2.42;;;;;;;5.39;83.23;99991.06;1623937;87;21079;-72
2022/02/23 02:09:35;;;;;;;6.72;1.75;;;;;;;5.45;83.26;100003.72;1624214;87;21196;-72
2022/02/23 02:12:01;;;;;;;5.40;1.85;;;;;;;5.49;83.25;100028.38;1624387;87;21169;-73
2022/02/23 02:14:27;;;;;;;6.97;2.47;;;;;;;5.52;83.22;100018.83;1623785;88;21064;-73
2022/02/23 02:16:53;;;;;;;7.72;2.83;;;;;;;5.56;83.18;100014.59;1624513;87;20947;-72
2022/02/23 02:19:19;;;;;;;13.58;2.42;;;;;;;5.57;83.11;100023.68;1613270;87;21048;-72
2022/02/23 02:22:03;;;;;;;10.70;2.05;;;;;;;5.57;83.04;100032.10;1627083;86;21045;-72
2022/02/23 02:24:36;;;;;;;12.43;2.17;;;;;;;5.58;82.98;100036.42;1652080;86;21938;-73
2022/02/23 02:27:06;;;;;;;7.15;1.50;;;;;;;5.56;82.89;100043.68;1648382;86;21019;-73
2022/02/23 02:29:33;;;;;;;8.63;2.02;;;;;;;5.56;82.80;100051.61;1644293;86;21951;-73
2022/02/23 02:32:00;;;;;;;11.30;5.40;;;;;;;5.54;82.71;100048.62;1630630;86;21113;-72
2022/02/23 02:34:26;;;;;;;12.55;4.35;;;;;;;5.56;82.66;100064.84;1638583;86;21062;-72
2022/02/23 02:36:52;;;;;;;20.65;4.60;;;;;;;5.57;82.58;100057.23;1626114;87;21062;-73
2022/02/23 02:39:19;;;;;;;12.88;3.25;;;;;;;5.58;82.50;100068.16;1638524;87;21593;-72
2022/02/23 02:41:46;;;;;;;9.18;2.22;;;;;;;5.60;82.37;100077.61;1642553;86;21027;-72
2022/02/23 02:44:12;;;;;;;9.10;2.42;;;;;;;5.63;82.25;100079.15;1626378;86;21062;-74
2022/02/23 02:46:38;;;;;;;13.75;2.87;;;;;;;5.63;82.12;100100.31;1630723;86;21042;-72
2022/02/23 02:49:04;;;;;;;10.60;2.40;;;;;;;5.62;82.04;100107.89;1642135;86;21094;-72
2022/02/23 02:51:30;;;;;;;6.00;2.00;;;;;;;5.60;81.94;100127.86;1625722;87;21129;-72
2022/02/23 02:53:56;;;;;;;5.72;2.12;;;;;;;5.59;81.85;100120.92;1635302;87;21029;-72
2022/02/23 02:56:23;;;;;;;11.43;2.55;;;;;;;5.59;81.71;100138.61;1640531;86;21097;-72
2022/02/23 02:58:52;;;;;;;10.95;2.52;;;;;;;5.57;81.62;100139.22;1640906;86;21014;-72
2022/02/23 03:01:24;;;;;;;6.08;1.50;;;;;;;5.54;81.50;100145.16;1640762;86;21643;-72
2022/02/23 03:03:50;;;;;;;10.13;2.35;;;;;;;5.54;81.36;100152.25;1653586;86;21030;-72
2022/02/23 03:06:17;;;;;;;11.08;1.57;;;;;;;5.52;81.25;100162.95;1653270;86;21065;-72
2022/02/23 03:08:43;;;;;;;12.45;2.33;;;;;;;5.52;81.14;100162.95;1641459;86;21521;-73
2022/02/23 03:11:09;;;;;;;12.93;2.40;;;;;;;5.49;81.01;100165.89;1642733;86;21053;-72
2022/02/23 03:13:36;;;;;;;8.73;2.47;;;;;;;5.48;80.91;100178.80;1615471;87;21104;-73
2022/02/23 03:16:03;;;;;;;12.05;2.20;;;;;;;5.46;80.83;100178.57;1635893;87;21083;-73
2022/02/23 03:18:29;;;;;;;12.28;2.37;;;;;;;5.42;80.74;100178.02;1635907;87;21076;-72
2022/02/23 03:20:55;;;;;;;6.15;2.12;;;;;;;5.40;80.66;100189.23;1636455;87;21558;-73
2022/02/23 03:23:21;;;;;;;8.43;1.82;;;;;;;5.39;80.63;100186.24;1638000;87;21513;-72
2022/02/23 03:25:47;;;;;;;10.88;2.45;;;;;;;5.35;80.56;100198.08;1636506;87;22175;-72
2022/02/23 03:28:13;;;;;;;11.55;2.58;;;;;;;5.30;80.53;100202.97;1636009;87;21083;-72
2022/02/23 03:30:39;;;;;;;10.80;2.20;;;;;;;5.25;80.52;100217.08;1635906;87;21103;-72
2022/02/23 03:33:07;;;;;;;8.43;2.08;;;;;;;5.21;80.51;100226.75;1635691;87;21024;-73
2022/02/23 03:35:33;;;;;;;6.45;2.15;;;;;;;5.16;80.49;100217.09;1636110;87;21087;-72
2022/02/23 03:37:58;;;;;;;7.22;2.40;;;;;;;5.11;80.48;100224.11;1639591;87;21231;-72
2022/02/23 03:40:25;;;;;;;10.82;2.90;;;;;;;5.09;80.49;100237.97;1639585;87;21569;-72
2022/02/23 03:42:52;;;;;;;14.25;3.33;;;;;;;5.05;80.47;100237.89;1639152;87;21068;-73
2022/02/23 03:45:18;;;;;;;11.15;3.52;;;;;;;5.04;80.46;100249.42;1639133;87;21549;-72
2022/02/23 03:47:45;;;;;;;12.50;2.27;;;;;;;5.02;80.46;100259.31;1635345;87;21052;-72
2022/02/23 03:50:11;;;;;;;8.75;3.27;;;;;;;5.00;80.47;100265.20;1639727;87;21498;-72
2022/02/23 03:52:37;;;;;;;6.17;1.60;;;;;;;4.98;80.46;100280.38;1638322;87;21067;-72
2022/02/23 03:55:06;;;;;;;8.25;1.82;;;;;;;4.96;80.44;100273.09;1635981;87;21036;-73
2022/02/23 03:57:32;;;;;;;7.37;2.17;;;;;;;4.92;80.45;100287.54;1638967;87;21057;-72
2022/02/23 03:59:58;;;;;;;12.63;2.50;;;;;;;4.88;80.46;100287.45;1639825;87;21164;-72
2022/02/23 04:02:24;;;;;;;9.30;2.42;;;;;;;4.84;80.44;100303.22;1638572;87;21179;-72
2022/02/23 04:04:50;;;;;;;13.03;3.20;;;;;;;4.79;80.41;100294.86;1602650;87;21535;-72
2022/02/23 04:07:16;;;;;;;13.93;2.47;;;;;;;4.73;80.41;100316.54;1590472;90;21030;-72
2022/02/23 04:09:43;;;;;;;11.55;2.45;;;;;;;4.69;80.39;100321.73;1594568;88;21571;-72
2022/02/23 04:12:10;;;;;;;14.03;2.77;;;;;;;4.68;80.37;100329.33;1600660;88;21096;-72
2022/02/23 04:14:36;;;;;;;14.23;2.75;;;;;;;4.69;80.37;100330.50;1578999;90;21828;-72
2022/02/23 04:17:03;;;;;;;17.23;3.75;;;;;;;4.69;80.33;100336.27;1581750;89;21044;-72
2022/02/23 04:19:29;;;;;;;18.42;2.83;;;;;;;4.67;80.28;100334.25;1590821;89;21047;-72
2022/02/23 04:21:55;;;;;;;17.12;3.62;;;;;;;4.65;80.22;100350.70;1604487;89;21264;-72
2022/02/23 04:24:21;;;;;;;8.68;2.77;;;;;;;4.62;80.18;100353.61;1603697;89;21092;-72
2022/02/23 04:26:47;;;;;;;13.30;3.60;;;;;;;4.58;80.12;100352.20;1600549;89;21075;-72
2022/02/23 04:29:13;;;;;;;15.15;4.12;;;;;;;4.56;80.08;100350.19;1601687;89;21464;-72
2022/02/23 04:31:40;;;;;;;21.12;3.70;;;;;;;4.52;80.02;100357.06;1610360;89;20978;-72
2022/02/23 04:34:06;;;;;;;16.12;4.05;;;;;;;4.51;79.95;100362.46;1603486;89;21137;-72
2022/02/23 04:36:32;;;;;;;25.55;4.05;;;;;;;4.43;79.87;100363.11;1590705;89;21071;-72
2022/02/23 04:38:58;;;;;;;24.92;4.65;;;;;;;4.37;79.82;100371.56;1602018;89;21318;-72
2022/02/23 04:41:24;;;;;;;17.87;3.12;;;;;;;4.35;79.71;100373.52;1605146;89;21011;-72
2022/02/23 04:43:50;;;;;;;16.45;3.42;;;;;;;4.30;79.63;100377.50;1604761;89;21116;-72
2022/02/23 04:46:17;;;;;;;15.72;3.62;;;;;;;4.25;79.57;100382.34;1579856;89;21100;-72
2022/02/23 04:48:44;;;;;;;14.93;3.90;;;;;;;4.19;79.49;100383.69;1605673;89;21358;-72
2022/02/23 04:51:10;;;;;;;11.88;3.70;;;;;;;4.16;79.45;100392.34;1605677;89;21111;-72
2022/02/23 04:53:36;;;;;;;23.15;4.95;;;;;;;4.15;79.39;100399.42;1603415;89;21039;-72
2022/02/23 04:56:03;;;;;;;25.25;5.80;;;;;;;4.13;79.34;100405.33;1601918;89;21076;-71
2022/02/23 04:58:29;;;;;;;18.67;3.83;;;;;;;4.09;79.31;100408.34;1603436;89;21044;-72
2022/02/23 05:00:55;;;;;;;10.10;2.98;;;;;;;4.01;79.26;100414.28;1605552;89;21036;-71
2022/02/23 05:03:22;;;;;;;11.85;3.58;;;;;;;4.00;79.25;100412.59;1604260;88;21194;-72
2022/02/23 05:05:49;;;;;;;18.90;3.75;;;;;;;3.98;79.23;100420.63;1608525;89;21059;-72
2022/02/23 05:08:17;;;;;;;13.55;3.58;;;;;;;3.95;79.24;100413.45;1607313;89;21559;-72
2022/02/23 05:10:44;;;;;;;19.52;3.98;;;;;;;3.98;79.21;100425.06;1588875;89;21046;-72
2022/02/23 05:13:10;;;;;;;20.80;3.52;;;;;;;3.99;79.18;100433.34;1605823;89;21094;-72
2022/02/23 05:15:36;;;;;;;22.75;3.95;;;;;;;4.01;79.17;100428.79;1607102;89;21934;-72
2022/02/23 05:18:05;;;;;;;16.07;3.35;;;;;;;4.02;79.16;100431.77;1591984;89;21100;-72
2022/02/23 05:20:31;;;;;;;22.50;4.77;;;;;;;4.03;79.13;100436.08;1603580;89;21511;-72
2022/02/23 05:22:58;;;;;;;16.60;5.65;;;;;;;4.03;79.11;100436.08;1608015;89;21634;-72
2022/02/23 05:25:24;;;;;;;27.80;5.45;;;;;;;4.01;79.11;100434.88;1595431;89;22037;-72
2022/02/23 05:27:51;;;;;;;24.70;4.70;;;;;;;4.02;79.09;100439.68;1603754;89;21914;-71
2022/02/23 05:30:17;;;;;;;18.32;5.22;;;;;;;4.00;79.06;100448.22;1599817;89;21055;-73
2022/02/23 05:32:43;;;;;;;23.25;6.55;;;;;;;3.99;79.06;100448.70;1588648;90;21058;-72
2022/02/23 05:35:09;;;;;;;10.80;3.35;;;;;;;4.00;79.04;100450.86;1597158;89;21078;-73
2022/02/23 05:37:35;;;;;;;20.08;5.35;;;;;;;4.04;79.02;100460.20;1608541;89;21062;-73
2022/02/23 05:40:02;;;;;;;14.90;4.15;;;;;;;4.08;79.00;100467.37;1592494;89;21167;-73
2022/02/23 05:42:28;;;;;;;13.65;3.15;;;;;;;4.06;78.96;100469.28;1592362;89;21518;-73
2022/02/23 05:44:54;;;;;;;24.75;4.60;;;;;;;4.05;78.96;100470.27;1583910;90;21079;-73
2022/02/23 05:47:20;;;;;;;30.72;4.83;;;;;;;4.01;78.92;100472.33;1584296;89;21039;-73
2022/02/23 05:49:46;;;;;;;19.05;3.83;;;;;;;4.00;78.90;100483.36;1589261;88;21064;-72
2022/02/23 05:52:13;;;;;;;17.80;3.65;;;;;;;4.00;78.90;100481.20;1589820;89;21198;-73
2022/02/23 05:54:41;;;;;;;23.05;3.12;;;;;;;4.03;78.90;100494.13;1597640;89;21643;-72
2022/02/23 05:57:07;;;;;;;15.30;3.47;;;;;;;4.01;78.86;100503.98;1626677;87;21114;-73
2022/02/23 05:59:33;;;;;;;20.08;4.03;;;;;;;3.99;78.86;100499.30;1621760;88;21021;-73
2022/02/23 06:01:59;;;;;;;23.38;4.10;;;;;;;4.00;78.87;100526.05;1620133;87;21040;-72
2022/02/23 06:04:25;;;;;;;17.62;4.58;;;;;;;3.97;78.86;100536.86;1599607;87;21163;-73
2022/02/23 06:06:51;;;;;;;17.25;4.28;;;;;;;4.00;78.84;100540.09;1596702;88;21077;-73
2022/02/23 06:09:17;;;;;;;20.65;4.65;;;;;;;4.02;78.83;100549.17;1597004;88;21098;-73
2022/02/23 06:11:43;;;;;;;18.50;3.52;;;;;;;4.03;78.83;100555.66;1600382;88;21023;-73
2022/02/23 06:14:10;;;;;;;14.87;3.05;;;;;;;4.08;78.80;100563.69;1579981;89;21049;-72
2022/02/23 06:16:36;;;;;;;16.93;3.42;;;;;;;4.15;78.80;100560.40;1577193;91;21190;-73
2022/02/23 06:19:02;;;;;;;20.15;4.17;;;;;;;4.22;78.76;100573.45;1598224;88;21060;-73
2022/02/23 06:21:28;;;;;;;20.65;4.87;;;;;;;4.28;78.73;100572.98;1577044;90;21063;-73
2022/02/23 06:23:55;;;;;;;22.48;5.17;;;;;;;4.33;78.70;100575.22;1619708;88;21065;-73
2022/02/23 06:26:22;;;;;;;17.27;4.03;;;;;;;4.33;78.66;100565.50;1626417;88;21091;-72
2022/02/23 06:28:48;;;;;;;16.12;3.42;;;;;;;4.37;78.63;100584.56;1614786;86;21822;-73
2022/02/23 06:31:14;;;;;;;15.18;3.50;;;;;;;4.40;78.59;100590.91;1597225;88;21718;-73
2022/02/23 06:33:42;;;;;;;22.40;4.58;;;;;;;4.42;78.55;100595.12;1607361;88;21493;-73
2022/02/23 06:36:10;;;;;;;15.65;4.08;;;;;;;4.46;78.52;100603.16;1616261;88;21043;-73
2022/02/23 06:38:40;;;;;;;53.30;13.53;;;;;;;4.49;78.47;100607.34;1617032;87;21493;-73
2022/02/23 06:41:12;;;;;;;29.42;6.50;;;;;;;4.50;78.44;100604.55;1605766;88;21765;-71
2022/02/23 06:43:39;;;;;;;26.85;6.70;;;;;;;4.50;78.41;100613.80;1610730;88;21061;-71
2022/02/23 06:46:05;;;;;;;20.20;5.67;;;;;;;4.53;78.34;100615.37;1626942;87;21024;-71
2022/02/23 06:48:32;;;;;;;31.80;9.28;;;;;;;4.53;78.28;100625.45;1618998;88;21055;-71
2022/02/23 06:50:59;;;;;;;22.77;6.10;;;;;;;4.52;78.24;100636.97;1625964;87;21051;-70
2022/02/23 06:53:25;;;;;;;34.90;5.50;;;;;;;4.53;78.19;100638.66;1603111;87;21165;-71
2022/02/23 06:55:52;;;;;;;24.12;4.58;;;;;;;4.58;78.15;100646.66;1617955;88;21581;-71
2022/02/23 06:58:19;;;;;;;24.05;6.92;;;;;;;4.63;78.09;100648.45;1627384;87;21118;-71
2022/02/23 07:00:46;;;;;;;31.02;6.87;;;;;;;4.68;78.05;100651.57;1608789;87;21037;-71
2022/02/23 07:03:12;;;;;;;20.37;4.33;;;;;;;4.70;77.97;100654.44;1602467;88;21071;-71
2022/02/23 07:05:38;;;;;;;13.25;3.70;;;;;;;4.76;77.93;100657.04;1600805;88;21588;-71
2022/02/23 07:08:05;;;;;;;11.28;2.90;;;;;;;4.82;77.85;100671.09;1610491;88;21091;-71
2022/02/23 07:10:32;;;;;;;18.27;4.03;;;;;;;4.90;77.79;100679.20;1625584;87;21422;-71
2022/02/23 07:12:59;;;;;;;16.50;4.08;;;;;;;5.01;77.73;100681.31;1618467;88;21024;-71
2022/02/23 07:15:25;;;;;;;22.20;3.67;;;;;;;5.15;77.67;100688.09;1598960;89;21593;-71
2022/02/23 07:17:51;;;;;;;28.90;5.15;;;;;;;5.24;77.62;100689.95;1621513;88;21139;-71
2022/02/23 07:20:18;;;;;;;26.10;6.37;;;;;;;5.37;77.51;100694.59;1623130;88;21016;-71
2022/02/23 07:22:44;;;;;;;15.72;3.92;;;;;;;5.34;77.45;100705.91;1608267;88;21655;-71
2022/02/23 07:25:11;;;;;;;19.00;4.28;;;;;;;5.28;77.38;100707.24;1615543;87;21457;-71
2022/02/23 07:27:38;;;;;;;14.85;3.72;;;;;;;5.25;77.30;100710.14;1619275;88;21104;-71
2022/02/23 07:30:07;;;;;;;12.43;3.55;;;;;;;5.26;77.21;100714.48;1598598;89;21928;-71
2022/02/23 07:32:34;;;;;;;20.70;5.80;;;;;;;5.33;77.12;100718.28;1618652;87;21039;-71
2022/02/23 07:35:03;;;;;;;19.27;4.35;;;;;;;5.38;77.06;100721.36;1599045;88;21553;-71
2022/02/23 07:37:29;;;;;;;20.02;4.58;;;;;;;5.39;76.96;100730.14;1604099;88;21084;-71
2022/02/23 07:39:58;;;;;;;24.98;5.92;;;;;;;5.41;76.84;100724.26;1602741;87;21078;-71
2022/02/23 07:42:24;;;;;;;16.45;3.98;;;;;;;5.41;76.76;100733.52;1618729;88;21222;-71
2022/02/23 07:44:50;;;;;;;12.75;3.92;;;;;;;5.50;76.66;100741.50;1617631;87;21069;-70
2022/02/23 07:47:16;;;;;;;23.18;5.72;;;;;;;5.67;76.58;100736.58;1619044;88;21573;-71
2022/02/23 07:49:46;;;;;;;24.85;7.12;;;;;;;5.66;76.48;100737.58;1601393;88;21532;-71
2022/02/23 07:52:10;;;;;;;26.33;9.43;;;;;;;5.60;76.39;100746.01;1624958;87;21028;-71
2022/02/23 07:54:36;;;;;;;20.37;6.53;;;;;;;5.51;76.30;100756.42;1605496;87;21181;-71
2022/02/23 07:57:03;;;;;;;18.05;4.60;;;;;;;5.48;76.23;100756.68;1600264;88;21545;-71
2022/02/23 07:59:29;;;;;;;21.05;7.42;;;;;;;5.44;76.10;100755.25;1625617;88;21037;-71
2022/02/23 08:01:55;;;;;;;19.52;4.75;;;;;;;5.44;76.02;100752.61;1624174;87;21595;-71
2022/02/23 08:04:22;;;;;;;14.80;4.35;;;;;;;5.45;75.93;100771.45;1613802;86;21052;-71
2022/02/23 08:06:48;;;;;;;19.05;5.20;;;;;;;5.45;75.83;100764.84;1623890;88;21239;-71
2022/02/23 08:09:14;;;;;;;14.05;4.12;;;;;;;5.49;75.77;100779.49;1607778;88;21045;-71
2022/02/23 08:11:41;;;;;;;17.60;4.28;;;;;;;5.52;75.67;100794.30;1619738;88;21280;-71
2022/02/23 08:14:08;;;;;;;20.25;4.17;;;;;;;5.51;75.58;100792.13;1602355;87;21487;-71
2022/02/23 08:19:33;;;;;;;17.07;5.85;;;;;;;5.57;75.40;100795.20;1598142;88;21796;-71
2022/02/23 08:22:04;;;;;;;14.90;3.50;;;;;;;5.59;75.32;100807.84;1599687;88;21035;-71
2022/02/23 08:24:30;;;;;;;17.05;3.60;;;;;;;5.61;75.28;100811.19;1596404;88;21083;-71
2022/02/23 08:26:57;;;;;;;12.55;3.22;;;;;;;5.63;75.20;100819.85;1604626;88;21060;-71
2022/02/23 08:29:24;;;;;;;16.32;3.40;;;;;;;5.64;75.11;100813.56;1612142;88;21064;-71
2022/02/23 08:31:50;;;;;;;27.90;11.28;;;;;;;5.73;75.05;100822.08;1609196;88;21146;-71
2022/02/23 08:34:17;;;;;;;22.60;8.40;;;;;;;5.90;75.01;100827.67;1603381;88;21099;-71
2022/02/23 08:36:44;;;;;;;22.90;6.78;;;;;;;5.93;74.91;100838.47;1604154;88;21105;-71
2022/02/23 08:39:11;;;;;;;23.50;5.10;;;;;;;5.93;74.86;100830.53;1601717;89;21098;-71
2022/02/23 08:41:37;;;;;;;21.27;5.33;;;;;;;5.95;74.78;100842.66;1600929;89;21057;-71
2022/02/23 08:44:07;;;;;;;23.65;4.53;;;;;;;6.04;74.69;100842.38;1592143;89;21105;-71
2022/02/23 08:46:31;;;;;;;27.15;9.28;;;;;;;6.08;74.61;100849.09;1601790;88;21008;-71
2022/02/23 08:48:57;;;;;;;21.75;5.30;;;;;;;6.12;74.54;100851.84;1624119;87;21116;-71
2022/02/23 08:51:23;;;;;;;17.87;5.40;;;;;;;6.17;74.49;100851.43;1601097;88;21065;-71
2022/02/23 08:53:49;;;;;;;21.85;5.17;;;;;;;6.19;74.41;100853.00;1599942;89;21114;-71
2022/02/23 08:56:15;;;;;;;25.35;5.78;;;;;;;6.19;74.29;100864.91;1600750;88;21083;-71
2022/02/23 08:58:41;;;;;;;25.82;5.20;;;;;;;6.25;74.26;100870.16;1604236;88;21084;-71
2022/02/23 09:01:08;;;;;;;20.50;4.95;;;;;;;6.24;74.11;100861.85;1613013;89;21470;-71
2022/02/23 09:03:34;;;;;;;23.50;5.47;;;;;;;6.23;74.02;100875.58;1606440;89;21149;-71
2022/02/23 09:06:00;;;;;;;25.90;6.62;;;;;;;6.23;73.89;100866.78;1616694;87;21085;-71
2022/02/23 09:08:26;;;;;;;19.80;4.53;;;;;;;6.23;73.71;100867.63;1633372;86;21099;-71
2022/02/23 09:10:52;;;;;;;22.20;6.10;;;;;;;6.27;73.60;100869.53;1631737;86;21570;-71
2022/02/23 09:13:18;;;;;;;20.90;5.40;;;;;;;6.32;73.46;100870.84;1644137;86;21017;-70
2022/02/23 09:15:44;;;;;;;31.00;8.28;;;;;;;6.35;73.26;100865.75;1627939;86;21032;-71
2022/02/23 09:18:10;;;;;;;20.88;3.87;;;;;;;6.43;73.17;100876.06;1626214;87;21127;-71
2022/02/23 09:20:36;;;;;;;17.80;3.52;;;;;;;6.49;72.94;100868.05;1631460;86;21630;-71
2022/02/23 09:23:02;;;;;;;19.55;4.45;;;;;;;6.48;72.73;100872.51;1625324;87;21068;-70
2022/02/23 09:25:29;;;;;;;22.32;5.72;;;;;;;6.57;72.55;100875.34;1648712;86;21076;-71
2022/02/23 09:27:55;;;;;;;20.60;4.20;;;;;;;6.75;72.44;100879.05;1635380;86;21082;-71
2022/02/23 09:30:21;;;;;;;25.30;5.50;;;;;;;6.89;72.27;100870.73;1633256;86;21066;-71
2022/02/23 09:32:51;;;;;;;22.02;6.75;;;;;;;6.89;72.01;100884.00;1631995;86;21162;-71
2022/02/23 09:35:16;;;;;;;16.65;4.83;;;;;;;6.95;71.93;100889.59;1653106;86;21016;-70
2022/02/23 09:37:42;;;;;;;18.55;4.45;;;;;;;6.97;71.81;100888.11;1633991;86;21083;-71
2022/02/23 09:40:14;;;;;;;17.42;6.22;;;;;;;7.02;71.59;100899.17;1631515;88;21012;-71
2022/02/23 09:42:40;;;;;;;15.38;4.55;;;;;;;7.12;71.45;100884.13;1631308;88;21023;-71
2022/02/23 09:45:07;;;;;;;30.08;6.87;;;;;;;7.36;71.34;100895.20;1631433;88;21927;-71
2022/02/23 09:47:33;;;;;;;23.35;7.17;;;;;;;7.46;71.06;100898.70;1631150;88;21118;-71
2022/02/23 09:50:00;;;;;;;27.13;9.25;;;;;;;7.31;70.66;100898.77;1631913;88;21602;-71
2022/02/23 09:52:26;;;;;;;22.13;6.85;;;;;;;7.23;70.45;100903.91;1631375;88;21043;-70
2022/02/23 09:54:57;;;;;;;19.95;6.87;;;;;;;7.16;70.22;100908.55;1631437;88;21016;-70
2022/02/23 09:57:25;;;;;;;23.10;7.22;;;;;;;7.16;70.19;100912.05;1631567;88;21155;-70
2022/02/23 09:59:51;;;;;;;29.25;8.50;;;;;;;7.21;70.07;100913.83;1631267;88;21036;-70
2022/02/23 10:02:17;;;;;;;15.85;3.45;;;;;;;7.18;69.72;100896.83;1631787;88;21028;-70
2022/02/23 10:04:43;;;;;;;28.60;6.78;;;;;;;7.19;69.35;100918.41;1603763;88;22092;-70
2022/02/23 10:07:09;;;;;;;26.68;7.25;;;;;;;7.25;69.18;100916.53;1631286;88;21094;-70
2022/02/23 10:09:43;;;;;;;38.63;11.75;;;;;;;7.32;68.95;100924.30;1631525;88;21055;-70
2022/02/23 10:12:17;;;;;;;17.90;4.65;;;;;;;7.41;68.85;100934.59;1631235;88;21145;-70
2022/02/23 10:14:47;;;;;;;15.05;3.83;;;;;;;7.34;68.59;100925.02;1631651;88;21099;-70
2022/02/23 10:17:14;;;;;;;31.27;7.40;;;;;;;7.20;68.39;100945.30;1631719;88;21099;-70
2022/02/23 10:19:50;;;;;;;20.37;3.45;;;;;;;7.09;68.25;100945.87;1631615;88;21131;-71
2022/02/23 10:22:21;;;;;;;15.50;3.98;;;;;;;7.02;68.16;100961.48;1631512;88;21278;-70
2022/02/23 10:24:47;;;;;;;20.68;3.50;;;;;;;6.97;68.10;100967.66;1631431;88;21023;-70
2022/02/23 10:27:15;;;;;;;17.00;4.17;;;;;;;6.90;68.03;100967.84;1631473;88;21067;-70
2022/02/23 10:29:54;;;;;;;24.00;4.42;;;;;;;6.87;67.95;100976.05;1631672;88;21027;-70
2022/02/23 10:32:25;;;;;;;23.95;7.20;;;;;;;6.87;67.91;100968.10;1631605;88;21041;-70
2022/02/23 10:34:55;;;;;;;26.05;10.45;;;;;;;6.94;67.91;100979.37;1631152;88;21243;-70
2022/02/23 10:37:23;;;;;;;19.77;5.77;;;;;;;7.00;67.87;100970.07;1631408;88;21099;-71
2022/02/23 10:39:54;;;;;;;19.62;6.30;;;;;;;7.02;67.83;100986.20;1631315;88;21176;-70
2022/02/23 10:42:26;;;;;;;18.55;4.12;;;;;;;7.06;67.83;100978.81;1631574;88;21538;-70
2022/02/23 10:44:54;;;;;;;47.40;21.77;;;;;;;7.10;67.70;100974.92;1631490;88;21023;-70
2022/02/23 10:47:25;;;;;;;19.60;5.17;;;;;;;7.21;67.65;100983.27;1631093;88;21839;-70
2022/02/23 10:50:16;;;;;;;19.70;4.87;;;;;;;7.24;67.54;100978.54;1631616;88;21011;-70
2022/02/23 10:52:45;;;;;;;14.63;3.12;;;;;;;7.28;67.41;100969.31;1625121;88;21059;-70
2022/02/23 16:52:44;;;;;;;69.07;27.93;;;;;;;5.59;60.13;101286.69;1696880;81;21040;-69
2022/02/23 16:55:10;;;;;;;;;;;;;;;5.51;60.25;101292.56;1624505;86;21065;-69
2022/02/23 16:57:36;;;;;;;47.13;18.73;;;;;;;5.44;60.33;101300.12;1605228;87;20263;-69
2022/02/23 17:00:05;;;;;;;61.42;24.30;;;;;;;5.38;60.43;101302.38;1614920;88;21894;-70
2022/02/23 17:02:31;;;;;;;78.25;34.05;;;;;;;5.30;60.52;101299.45;1630554;87;21077;-70
2022/02/23 17:04:57;;;;;;;108.65;40.10;;;;;;;5.23;60.63;101303.03;1637907;87;21183;-69
2022/02/23 17:07:24;;;;;;;93.80;39.95;;;;;;;5.18;60.72;101313.09;1620257;87;21020;-70
2022/02/23 17:09:50;;;;;;;95.83;38.88;;;;;;;5.12;60.81;101316.20;1641446;85;21080;-70
2022/02/23 17:12:16;;;;;;;186.55;70.52;;;;;;;5.04;60.92;101318.55;1648558;85;21741;-70
2022/02/23 17:14:43;;;;;;;180.93;70.65;;;;;;;4.96;61.02;101315.64;1636427;85;21084;-70
2022/02/23 17:17:09;;;;;;;159.25;53.48;;;;;;;4.91;61.12;101316.44;1635220;85;39432;-70
2022/02/23 17:19:36;;;;;;;91.90;28.73;;;;;;;4.90;61.22;101332.77;1638304;85;21049;-69
2022/02/23 17:22:02;;;;;;;104.97;30.72;;;;;;;4.84;61.31;101328.41;1624707;86;21067;-69
2022/02/23 17:24:28;;;;;;;145.87;42.17;;;;;;;4.74;61.44;101332.67;1645491;85;21046;-69